»·PEaware :: SWA1526 KSFO-KSAN

SWA1526 :: KSFO-KSAN

FLIGHT INFORMATION

Flight Status: Arrived
Operator:
Southwest Airlines
More flights by this operator :: More flights under this callsign
Pilot: Jac C. (16067)
Aircraft: BOEING 737-800
(B738)
More flights by this aircraft type
Origin: KSFO San Francisco Intl
United States
Destination: KSAN San Diego Intl-Lindbergh
United States
More flights between these airports :: More routes between these airports
Route: +OFFSH1 MCKEY LAX COMIX1
File this flight plan on PilotEdge
Remarks:
Altitude:
(Current/Filed)
37,000ft
Speed:
(Current/Filed)
454kts
Departed: 23-Mar-18 11:36 AM
Arrived: 23-Mar-18 12:52 PM
Distance/Time
Traveled:
388nm/1:16
Distance/Time
To Go:
Arrived

Flight Plot

Page will automatically refresh every two minutes.

Flight plan parsing failed; only flown route is shown


Map Options




Map Legend


Flown Route
Filed Route
Departure Airport
Arrival Airport
Navaid (VOR, NDB)
Fix

Horizontal Profiles

Position Reports

Time Latitude Longitude Heading Altitude Ground
Speed
23-Mar-18 10:57 37.613771 -122.389519 115 17ft 0kts
23-Mar-18 10:58 37.613771 -122.389519 115 17ft 0kts
23-Mar-18 10:59 37.613771 -122.389519 115 17ft 0kts
23-Mar-18 11:00 37.613771 -122.389519 115 17ft 0kts
23-Mar-18 11:01 37.613771 -122.389519 115 17ft 0kts
23-Mar-18 11:02 37.613771 -122.389519 115 17ft 0kts
23-Mar-18 11:03 37.613771 -122.389519 115 17ft 0kts
23-Mar-18 11:04 37.613771 -122.389519 115 17ft 0kts
23-Mar-18 11:05 37.613771 -122.389519 115 17ft 0kts
23-Mar-18 11:06 37.613771 -122.389519 115 17ft 0kts
23-Mar-18 11:07 37.613771 -122.389519 115 17ft 0kts
23-Mar-18 11:08 37.613771 -122.389519 115 17ft 0kts
23-Mar-18 11:09 37.613771 -122.389520 115 16ft 0kts
23-Mar-18 11:10 37.613771 -122.389520 115 17ft 0kts
23-Mar-18 11:11 37.613771 -122.389520 115 17ft 0kts
23-Mar-18 11:12 37.613771 -122.389520 115 17ft 0kts
23-Mar-18 11:13 37.613771 -122.389520 115 17ft 0kts
23-Mar-18 11:14 37.613771 -122.389520 115 17ft 0kts
23-Mar-18 11:15 37.613771 -122.389520 115 17ft 0kts
23-Mar-18 11:16 37.613771 -122.389520 115 17ft 0kts
23-Mar-18 11:17 37.613771 -122.389520 115 17ft 0kts
23-Mar-18 11:18 37.613771 -122.389520 115 17ft 0kts
23-Mar-18 11:19 37.613771 -122.389520 115 17ft 0kts
23-Mar-18 11:20 37.613771 -122.389520 115 17ft 0kts
23-Mar-18 11:21 37.613771 -122.389520 115 17ft 0kts
23-Mar-18 11:22 37.613830 -122.389725 100 17ft 2kts
23-Mar-18 11:23 37.613732 -122.390452 69 17ft 2kts
23-Mar-18 11:24 37.613691 -122.391030 114 17ft 1kts
23-Mar-18 11:25 37.613296 -122.390930 209 17ft 0kts
23-Mar-18 11:26 37.613296 -122.390930 209 17ft 0kts
23-Mar-18 11:27 37.613296 -122.390930 209 17ft 0kts
23-Mar-18 11:28 37.612784 -122.391280 207 17ft 8kts
23-Mar-18 11:29 37.610356 -122.390364 132 16ft 7kts
23-Mar-18 11:30 37.610724 -122.388703 28 16ft 0kts
23-Mar-18 11:31 37.610753 -122.387053 117 16ft 16kts
23-Mar-18 11:32 37.608661 -122.384229 124 17ft 0kts
23-Mar-18 11:33 37.608944 -122.383523 75 16ft 0kts
23-Mar-18 11:34 37.608945 -122.383519 76 17ft 0kts
23-Mar-18 11:35 37.611685 -122.380386 29 17ft 77kts
23-Mar-18 11:36 37.654035 -122.358928 356 2183ft 202kts
23-Mar-18 11:37 37.717537 -122.380307 299 4834ft 275kts
23-Mar-18 11:38 37.683203 -122.437822 167 8613ft 265kts
23-Mar-18 11:39 37.621739 -122.479268 191 11756ft 285kts
23-Mar-18 11:40 37.537802 -122.491529 190 14844ft 315kts
23-Mar-18 11:41 37.449732 -122.503856 191 18333ft 327kts
23-Mar-18 11:42 37.357875 -122.516738 192 21501ft 340kts
23-Mar-18 11:43 37.262346 -122.530152 193 24325ft 354kts
23-Mar-18 11:44 37.163217 -122.544081 194 26829ft 368kts
23-Mar-18 11:45 37.060193 -122.558527 195 29177ft 379kts
23-Mar-18 11:46 36.957172 -122.570574 186 32030ft 381kts
23-Mar-18 11:47 36.853288 -122.543749 181 34442ft 382kts
23-Mar-18 11:48 36.749983 -122.516747 181 36404ft 378kts
23-Mar-18 11:49 36.646215 -122.490004 181 37301ft 393kts
23-Mar-18 11:50 36.535222 -122.461390 180 37299ft 422kts
23-Mar-18 11:51 36.421821 -122.420840 159 37301ft 455kts
23-Mar-18 11:52 36.331828 -122.300476 140 37294ft 484kts
23-Mar-18 11:53 36.245118 -122.173569 141 37295ft 482kts
23-Mar-18 11:54 36.158478 -122.047808 141 37297ft 483kts
23-Mar-18 11:55 36.071189 -121.921607 141 37299ft 483kts
23-Mar-18 11:56 35.983843 -121.795774 141 37302ft 484kts
23-Mar-18 11:57 35.896667 -121.670638 141 37303ft 485kts
23-Mar-18 11:58 35.809112 -121.545425 141 37305ft 487kts
23-Mar-18 11:59 35.722569 -121.422102 141 37299ft 490kts
23-Mar-18 12:00 35.634364 -121.296800 141 37275ft 487kts
23-Mar-18 12:01 35.546565 -121.172559 142 37279ft 480kts
23-Mar-18 12:02 35.461583 -121.046700 135 37276ft 485kts
23-Mar-18 12:03 35.383871 -120.913107 137 37247ft 481kts
23-Mar-18 12:04 35.307634 -120.784786 136 37250ft 489kts
23-Mar-18 12:05 35.228048 -120.650645 136 37241ft 490kts
23-Mar-18 12:06 35.148638 -120.516619 136 37241ft 490kts
23-Mar-18 12:07 35.069023 -120.381988 136 37237ft 490kts
23-Mar-18 12:08 34.999334 -120.263851 136 37219ft 487kts
23-Mar-18 12:09 34.921598 -120.131905 135 37213ft 482kts
23-Mar-18 12:10 34.847576 -120.006031 134 37215ft 479kts
23-Mar-18 12:11 34.770556 -119.874816 134 37211ft 479kts
23-Mar-18 12:12 34.694209 -119.744505 134 37197ft 480kts
23-Mar-18 12:13 34.617042 -119.612542 134 37198ft 480kts
23-Mar-18 12:14 34.539960 -119.480479 134 37202ft 480kts
23-Mar-18 12:15 34.465872 -119.353304 134 37207ft 480kts
23-Mar-18 12:16 34.402956 -119.245070 134 37197ft 479kts
23-Mar-18 12:17 34.326602 -119.113550 134 37192ft 480kts
23-Mar-18 12:18 34.250743 -118.982648 134 37188ft 479kts
23-Mar-18 12:19 34.175005 -118.851710 134 37197ft 477kts
23-Mar-18 12:20 34.100068 -118.721922 133 37204ft 477kts
23-Mar-18 12:21 34.024680 -118.591099 133 37201ft 474kts
23-Mar-18 12:22 33.954851 -118.469537 134 36099ft 432kts
23-Mar-18 12:23 33.881650 -118.364531 143 34081ft 424kts
23-Mar-18 12:24 33.804365 -118.265233 142 32029ft 432kts
23-Mar-18 12:25 33.724235 -118.160670 140 29902ft 441kts
23-Mar-18 12:26 33.641553 -118.052100 139 27692ft 439kts
23-Mar-18 12:27 33.560581 -117.946170 139 25542ft 426kts
23-Mar-18 12:28 33.478026 -117.848740 142 23461ft 411kts
23-Mar-18 12:29 33.397953 -117.753684 139 21434ft 400kts
23-Mar-18 12:30 33.321352 -117.660318 138 19471ft 388kts
23-Mar-18 12:31 33.245166 -117.573215 148 17515ft 372kts
23-Mar-18 12:32 33.161768 -117.504104 148 15515ft 358kts
23-Mar-18 12:33 33.081371 -117.437024 147 13804ft 347kts
23-Mar-18 12:34 33.004140 -117.372392 146 12185ft 333kts
23-Mar-18 12:35 32.939491 -117.318155 147 10821ft 276kts
23-Mar-18 12:36 32.878483 -117.267326 147 9552ft 273kts
23-Mar-18 12:37 32.818245 -117.215605 133 8245ft 268kts
23-Mar-18 12:38 32.798371 -117.136953 101 7113ft 244kts
23-Mar-18 12:39 32.785965 -117.057668 101 5995ft 237kts
23-Mar-18 12:40 32.773233 -116.981694 101 5626ft 237kts
23-Mar-18 12:41 32.759958 -116.906450 101 5046ft 230kts
23-Mar-18 12:42 32.746717 -116.832388 101 4979ft 223kts
23-Mar-18 12:43 32.706689 -116.820480 230 5026ft 192kts
23-Mar-18 12:44 32.680972 -116.873736 251 4870ft 190kts
23-Mar-18 12:45 32.671292 -116.931412 284 3764ft 179kts
23-Mar-18 12:46 32.682741 -116.980640 285 3533ft 131kts
23-Mar-18 12:47 32.693555 -117.025309 285 3388ft 145kts
23-Mar-18 12:48 32.704504 -117.070192 285 2269ft 140kts
23-Mar-18 12:49 32.715984 -117.114108 281 1348ft 138kts
23-Mar-18 12:50 32.725584 -117.156278 282 571ft 133kts
23-Mar-18 12:51 32.734392 -117.193023 285 23ft 34kts
23-Mar-18 12:52 32.733943 -117.195710 243 24ft 11kts
23-Mar-18 12:53 32.733320 -117.196935 145 24ft 2kts
23-Mar-18 12:54 32.733128 -117.196749 139 24ft 0kts

Navigation Log

Ident Type
Flight plan parsing failed, navigation log unavailable